Time;durP1;ratioP1;P1;durP2;ratioP2;P2;SDS_P1;SDS_P2;PMS_P1;PMS_P2;Temp;Humidity;BMP_temperature;BMP_pressure;BME280_temperature;BME280_humidity;BME280_pressure;Samples;Min_cycle;Max_cycle;Signal;HPM_P1;HPM_P2
2021/05/28 07:31:40;;;;;;;6.43;2.03;;;16.70;99.90;;;;;;6110089;23;20048;-86
2021/05/28 07:34:08;;;;;;;4.80;2.10;;;16.70;99.90;;;;;;6150292;23;20025;-84
2021/05/28 07:36:35;;;;;;;3.53;2.03;;;16.80;99.90;;;;;;6151906;23;20022;-85
2021/05/28 07:39:03;;;;;;;4.45;1.83;;;16.90;99.90;;;;;;6150470;23;20084;-84
2021/05/28 07:41:30;;;;;;;3.88;1.67;;;17.00;99.90;;;;;;6150070;23;20488;-86
2021/05/28 07:43:59;;;;;;;3.15;1.90;;;17.10;99.90;;;;;;6150541;23;20132;-84
2021/05/28 07:46:26;;;;;;;2.78;2.13;;;17.20;99.90;;;;;;6150415;23;20025;-84
2021/05/28 07:48:53;;;;;;;4.80;2.00;;;17.20;99.90;;;;;;6150649;23;20029;-84
2021/05/28 07:51:20;;;;;;;3.38;1.90;;;17.40;99.90;;;;;;6151583;23;20021;-84
2021/05/28 07:53:47;;;;;;;3.45;2.20;;;17.50;99.90;;;;;;6150809;23;20090;-85
2021/05/28 07:56:13;;;;;;;1.67;1.52;;;17.50;99.90;;;;;;6151576;23;20025;-84
2021/05/28 07:58:40;;;;;;;4.68;1.60;;;17.60;99.90;;;;;;6152018;23;20097;-85
2021/05/28 08:01:08;;;;;;;2.88;1.80;;;17.60;99.90;;;;;;6150287;23;20029;-85
2021/05/28 08:03:37;;;;;;;4.03;1.60;;;17.70;99.90;;;;;;6150744;23;20022;-85
2021/05/28 08:06:05;;;;;;;2.25;1.50;;;17.90;99.90;;;;;;6150038;23;20322;-85
2021/05/28 08:08:32;;;;;;;2.45;1.60;;;18.00;99.90;;;;;;6152091;23;20481;-84
2021/05/28 08:10:58;;;;;;;2.45;1.50;;;18.30;99.90;;;;;;6150386;23;20543;-84
2021/05/28 08:13:26;;;;;;;2.92;1.55;;;18.60;99.90;;;;;;6149957;23;20017;-85
2021/05/28 08:15:54;;;;;;;2.72;1.55;;;18.80;99.90;;;;;;6150363;23;20013;-84
2021/05/28 08:18:21;;;;;;;3.42;1.40;;;19.00;99.90;;;;;;6151518;23;20084;-84
2021/05/28 08:20:48;;;;;;;2.35;1.20;;;19.20;99.90;;;;;;6150368;23;20538;-85
2021/05/28 08:23:15;;;;;;;3.03;1.30;;;19.40;99.90;;;;;;6150841;23;20017;-85
2021/05/28 08:25:42;;;;;;;2.08;1.20;;;19.60;99.90;;;;;;6151998;23;20068;-85
2021/05/28 08:28:09;;;;;;;2.90;1.30;;;19.80;99.90;;;;;;6150041;23;20021;-86
2021/05/28 08:30:36;;;;;;;2.33;1.13;;;20.00;99.90;;;;;;6151775;23;20068;-84
2021/05/28 08:33:06;;;;;;;2.08;1.20;;;20.20;99.90;;;;;;6149891;23;20017;-84
2021/05/28 08:35:33;;;;;;;2.30;1.15;;;20.40;99.90;;;;;;6149579;23;20771;-86
2021/05/28 08:38:00;;;;;;;2.35;1.10;;;20.60;99.90;;;;;;6150351;23;20027;-85
2021/05/28 08:40:30;;;;;;;1.88;1.13;;;20.70;99.90;;;;;;6151001;23;20385;-85
2021/05/28 08:43:00;;;;;;;3.38;1.33;;;20.80;99.90;;;;;;6150488;23;20397;-85
2021/05/28 08:45:39;;;;;;;2.20;1.20;;;21.00;99.90;;;;;;6149744;23;20369;-84
2021/05/28 08:48:08;;;;;;;3.28;1.30;;;21.10;99.90;;;;;;6151449;23;20052;-85
2021/05/28 08:50:36;;;;;;;2.72;1.20;;;21.10;99.90;;;;;;6151663;23;20017;-85
2021/05/28 08:53:05;;;;;;;1.83;0.98;;;21.20;99.90;;;;;;6150307;23;20068;-84
2021/05/28 08:55:32;;;;;;;;;;;21.20;99.90;;;;;;6150179;23;20017;-85
2021/05/28 08:57:59;;;;;;;1.85;1.00;;;21.20;99.90;;;;;;6174877;23;19916;-86
2021/05/28 09:00:30;;;;;;;1.42;0.85;;;21.30;99.90;;;;;;6148448;23;20492;-86
2021/05/28 09:02:57;;;;;;;1.20;1.00;;;21.30;99.90;;;;;;6151130;23;20022;-85
2021/05/28 09:05:25;;;;;;;2.78;1.20;;;21.40;99.90;;;;;;6147139;23;20021;-85
2021/05/28 09:07:58;;;;;;;2.60;1.00;;;21.50;99.90;;;;;;6147867;23;20551;-86
2021/05/28 09:10:28;;;;;;;3.20;1.25;;;21.50;99.90;;;;;;6146781;23;20021;-85
2021/05/28 09:13:15;;;;;;;2.78;0.90;;;21.60;99.90;;;;;;6149453;23;20021;-85
2021/05/28 09:15:45;;;;;;;2.45;1.08;;;21.70;99.90;;;;;;6147054;23;20464;-86
2021/05/28 09:18:13;;;;;;;1.10;1.00;;;21.70;99.90;;;;;;6147035;23;20088;-86
2021/05/28 09:20:46;;;;;;;3.28;1.02;;;21.80;99.90;;;;;;6148327;23;20065;-85
2021/05/28 09:23:20;;;;;;;3.78;1.30;;;21.80;99.90;;;;;;6148838;23;20554;-87
2021/05/28 09:26:10;;;;;;;1.63;1.00;;;21.80;99.90;;;;;;6147531;23;20018;-86
2021/05/28 09:28:48;;;;;;;3.58;1.10;;;21.80;99.90;;;;;;6141009;23;20045;-86
2021/05/28 09:31:22;;;;;;;1.65;0.60;;;21.90;99.90;;;;;;6147566;23;20480;-86
2021/05/28 09:33:52;;;;;;;0.90;0.70;;;21.90;99.90;;;;;;6147934;23;20018;-88
2021/05/28 09:36:27;;;;;;;3.67;0.77;;;21.90;99.90;;;;;;6147214;23;20025;-85
2021/05/28 09:39:10;;;;;;;2.05;0.60;;;22.00;99.90;;;;;;6149720;23;20476;-88
2021/05/28 09:41:49;;;;;;;1.45;0.80;;;22.00;99.90;;;;;;6149573;23;20104;-86
2021/05/28 09:44:24;;;;;;;0.73;0.70;;;22.10;99.90;;;;;;6149057;23;20021;-86
2021/05/28 09:46:56;;;;;;;0.85;0.80;;;22.20;99.90;;;;;;6151837;23;20025;-85
2021/05/28 09:49:41;;;;;;;2.45;0.98;;;22.30;99.90;;;;;;6149371;23;20029;-86
2021/05/28 09:52:14;;;;;;;1.70;0.80;;;22.40;99.90;;;;;;6151265;23;20017;-88
2021/05/28 09:54:57;;;;;;;2.47;0.90;;;22.40;99.90;;;;;;6151763;23;20076;-88
2021/05/28 09:57:35;;;;;;;1.83;0.80;;;22.50;99.90;;;;;;6150582;23;20029;-86
2021/05/28 10:00:20;;;;;;;1.47;0.90;;;22.50;99.90;;;;;;6151065;23;20024;-86
2021/05/28 10:03:08;;;;;;;2.88;0.70;;;22.60;99.90;;;;;;6151329;23;20248;-86
2021/05/28 10:05:37;;;;;;;0.70;0.68;;;22.70;99.90;;;;;;6152734;23;20010;-86
2021/05/28 10:08:08;;;;;;;2.78;0.90;;;22.80;99.90;;;;;;6151009;23;20021;-85
2021/05/28 10:10:36;;;;;;;1.52;0.65;;;22.90;99.90;;;;;;6152849;23;20083;-87
2021/05/28 10:13:12;;;;;;;1.17;0.77;;;22.90;99.90;;;;;;6152103;23;20068;-86
2021/05/28 10:15:50;;;;;;;1.05;0.93;;;23.10;99.90;;;;;;6150087;23;20064;-87
2021/05/28 10:18:17;;;;;;;0.90;0.70;;;23.10;99.70;;;;;;6152557;23;20021;-85
2021/05/28 10:20:48;;;;;;;1.70;0.70;;;23.20;99.30;;;;;;6151161;23;20017;-86
2021/05/28 10:23:16;;;;;;;1.48;0.80;;;23.30;99.40;;;;;;6151287;23;20308;-86
2021/05/28 10:25:45;;;;;;;1.98;0.80;;;23.30;99.60;;;;;;6152896;23;20527;-86
2021/05/28 10:28:18;;;;;;;1.85;0.80;;;23.40;99.30;;;;;;6150860;23;20080;-86
2021/05/28 10:30:47;;;;;;;1.15;0.70;;;23.50;98.90;;;;;;6150993;23;20540;-86
2021/05/28 10:33:21;;;;;;;1.45;1.00;;;23.60;99.00;;;;;;6152645;23;20024;-86
2021/05/28 10:35:51;;;;;;;3.00;1.10;;;23.70;99.20;;;;;;6149848;23;20023;-87
2021/05/28 10:38:30;;;;;;;3.53;1.23;;;23.80;99.00;;;;;;6152265;23;20559;-86
2021/05/28 10:41:00;;;;;;;1.40;1.08;;;23.80;97.90;;;;;;6150643;23;20461;-87
2021/05/28 10:43:28;;;;;;;1.98;0.90;;;23.90;98.00;;;;;;6150027;23;20466;-87
2021/05/28 10:46:11;;;;;;;2.15;1.00;;;23.90;98.30;;;;;;6150567;23;20527;-88
2021/05/28 10:48:38;;;;;;;3.17;1.00;;;24.10;97.60;;;;;;6152099;23;20021;-87
2021/05/28 10:51:08;;;;;;;1.58;0.90;;;24.10;97.60;;;;;;6150117;23;20018;-86
2021/05/28 10:53:36;;;;;;;1.42;1.10;;;24.00;97.00;;;;;;6153053;23;20021;-85
2021/05/28 10:56:08;;;;;;;3.47;0.90;;;23.90;97.10;;;;;;6150996;23;20018;-85
2021/05/28 10:58:57;;;;;;;1.48;0.82;;;24.00;96.90;;;;;;6152687;23;20013;-86
2021/05/28 11:01:48;;;;;;;1.92;0.90;;;24.00;96.40;;;;;;6152118;23;20021;-86
2021/05/28 11:04:21;;;;;;;2.05;0.93;;;24.10;96.80;;;;;;6152575;23;20022;-87
2021/05/28 11:06:58;;;;;;;2.10;0.90;;;24.20;96.80;;;;;;6151359;23;20025;-86
2021/05/28 11:09:46;;;;;;;2.90;0.90;;;24.30;96.90;;;;;;6152214;23;20092;-87
2021/05/28 11:12:15;;;;;;;2.10;0.80;;;24.40;96.50;;;;;;6150576;23;20084;-87
2021/05/28 11:15:08;;;;;;;2.20;1.00;;;24.50;96.80;;;;;;6151086;23;20022;-87
2021/05/28 11:18:02;;;;;;;1.73;0.80;;;24.50;95.80;;;;;;6152230;23;20021;-87
2021/05/28 11:20:42;;;;;;;0.98;0.65;;;24.60;95.50;;;;;;6145732;23;20018;-87
2021/05/28 11:23:16;;;;;;;1.27;0.82;;;24.60;96.20;;;;;;6150578;23;20029;-85
2021/05/28 11:25:51;;;;;;;1.42;0.90;;;24.70;95.70;;;;;;6152413;23;20084;-87
2021/05/28 11:28:19;;;;;;;2.67;1.00;;;24.90;95.50;;;;;;6150805;23;20369;-88
2021/05/28 11:30:51;;;;;;;2.67;1.10;;;25.00;95.40;;;;;;6150257;23;20352;-87
2021/05/28 11:33:33;;;;;;;3.72;0.77;;;25.10;95.40;;;;;;6150603;23;20092;-88
2021/05/28 11:36:16;;;;;;;1.80;0.93;;;25.20;94.60;;;;;;6150344;23;20017;-88
2021/05/28 11:38:44;;;;;;;1.67;1.10;;;25.20;94.60;;;;;;6152085;23;20026;-87
2021/05/28 11:41:11;;;;;;;1.73;1.20;;;25.20;94.10;;;;;;6151544;23;20025;-87
2021/05/28 11:43:38;;;;;;;1.67;1.20;;;25.10;93.50;;;;;;6150752;23;20025;-87
2021/05/28 11:46:05;;;;;;;2.28;1.15;;;24.80;92.90;;;;;;6149995;23;20087;-87
2021/05/28 11:48:32;;;;;;;2.10;1.00;;;24.60;92.90;;;;;;6150932;23;20084;-88
2021/05/28 11:51:01;;;;;;;1.85;1.05;;;24.60;93.30;;;;;;6151448;23;20284;-87
2021/05/28 11:53:33;;;;;;;1.88;1.05;;;24.60;93.30;;;;;;6151555;23;20018;-87
2021/05/28 11:56:01;;;;;;;2.95;1.10;;;24.50;92.90;;;;;;6152201;23;20030;-88
2021/05/28 11:58:34;;;;;;;1.73;0.98;;;24.40;93.40;;;;;;6151970;23;20025;-88
2021/05/28 12:01:03;;;;;;;1.50;1.10;;;24.50;93.80;;;;;;6154156;23;20491;-87
2021/05/28 12:03:30;;;;;;;1.10;0.90;;;24.50;93.30;;;;;;6154459;23;20468;-88
2021/05/28 12:06:05;;;;;;;1.05;0.88;;;24.50;93.20;;;;;;6153271;23;20017;-88
2021/05/28 12:08:34;;;;;;;2.22;1.10;;;24.60;93.20;;;;;;6154646;23;20073;-88
2021/05/28 12:11:03;;;;;;;;;;;24.60;93.20;;;;;;6155840;23;20021;-86
2021/05/28 12:13:32;;;;;;;1.50;1.05;;;24.60;93.60;;;;;;6152962;23;19963;-87
2021/05/28 12:16:01;;;;;;;1.02;0.90;;;24.70;93.20;;;;;;6153711;23;20106;-88
2021/05/28 12:18:34;;;;;;;2.30;1.02;;;24.80;93.40;;;;;;6152935;23;20092;-88
2021/05/28 12:21:19;;;;;;;2.40;1.02;;;24.90;93.20;;;;;;6152953;23;20398;-88
2021/05/28 12:24:04;;;;;;;1.85;1.05;;;25.10;91.90;;;;;;6152455;23;20017;-88
2021/05/28 12:26:31;;;;;;;1.20;0.80;;;25.00;91.90;;;;;;6152975;23;20072;-88
2021/05/28 12:29:01;;;;;;;2.28;0.90;;;25.00;92.30;;;;;;6153089;23;20068;-87
2021/05/28 12:31:34;;;;;;;1.52;1.13;;;25.10;92.30;;;;;;6151997;23;20458;-87
2021/05/28 12:34:07;;;;;;;3.88;1.02;;;25.20;91.90;;;;;;6153432;23;20025;-88
2021/05/28 12:36:42;;;;;;;0.93;0.80;;;25.20;91.90;;;;;;6152435;23;20022;-88
2021/05/28 12:39:11;;;;;;;1.10;0.80;;;25.20;91.70;;;;;;6152226;23;20021;-87
2021/05/28 12:41:39;;;;;;;2.78;1.23;;;25.40;91.50;;;;;;6153025;23;20025;-88
2021/05/28 12:44:06;;;;;;;1.70;1.00;;;25.40;91.40;;;;;;6154508;23;20080;-87
2021/05/28 12:46:38;;;;;;;1.92;1.15;;;25.50;91.60;;;;;;6154337;23;20070;-87
2021/05/28 12:49:06;;;;;;;1.48;1.00;;;25.60;91.70;;;;;;6152720;23;20349;-88
2021/05/28 12:51:37;;;;;;;1.75;0.95;;;25.80;91.40;;;;;;6152825;23;20021;-87
2021/05/28 12:54:18;;;;;;;2.13;1.05;;;25.80;91.60;;;;;;6152173;23;20393;-86
2021/05/28 12:56:46;;;;;;;1.85;0.90;;;26.00;91.10;;;;;;6154494;23;20017;-88
2021/05/28 12:59:24;;;;;;;1.20;1.05;;;26.10;91.20;;;;;;6151992;23;20026;-88
2021/05/28 13:01:53;;;;;;;1.02;0.90;;;26.00;90.30;;;;;;6153089;23;20026;-88
2021/05/28 13:04:21;;;;;;;2.47;1.10;;;26.00;90.30;;;;;;6153926;23;20025;-87
2021/05/28 13:06:58;;;;;;;1.65;1.08;;;26.00;90.40;;;;;;6153032;23;20026;-87
2021/05/28 13:09:29;;;;;;;3.93;1.30;;;25.80;89.00;;;;;;6152279;23;20017;-87
2021/05/28 13:12:04;;;;;;;1.52;1.00;;;25.70;90.00;;;;;;6153063;23;20014;-87
2021/05/28 13:14:53;;;;;;;2.67;0.90;;;25.70;90.80;;;;;;6152089;23;20032;-88
2021/05/28 13:17:31;;;;;;;2.60;1.00;;;25.70;90.60;;;;;;6152109;23;20360;-88
2021/05/28 13:19:58;;;;;;;1.33;0.90;;;25.50;90.70;;;;;;6152805;23;20013;-87
2021/05/28 13:22:37;;;;;;;3.17;1.13;;;25.40;90.70;;;;;;6152488;23;20084;-87
2021/05/28 13:25:37;;;;;;;1.65;1.02;;;25.20;89.70;;;;;;6154364;23;20019;-87
2021/05/28 13:28:09;;;;;;;2.13;0.80;;;25.10;89.80;;;;;;6154458;23;20464;-86
2021/05/28 13:30:51;;;;;;;2.83;0.82;;;24.80;90.10;;;;;;6154441;23;20021;-87
2021/05/28 13:33:32;;;;;;;2.83;1.10;;;24.40;90.10;;;;;;6154146;23;20018;-87
2021/05/28 13:36:11;;;;;;;2.08;1.00;;;24.10;90.60;;;;;;6154720;23;20025;-88
2021/05/28 13:38:57;;;;;;;2.95;1.00;;;24.00;90.70;;;;;;6156138;23;20029;-87
2021/05/28 13:41:39;;;;;;;1.23;0.90;;;23.90;90.80;;;;;;6156275;23;20065;-88
2021/05/28 13:44:09;;;;;;;2.67;0.80;;;23.90;90.80;;;;;;6154312;23;20073;-88
2021/05/28 13:46:36;;;;;;;2.00;1.05;;;23.90;90.90;;;;;;6154396;23;20021;-89
2021/05/28 13:49:05;;;;;;;5.40;1.10;;;24.00;91.10;;;;;;6154095;23;20025;-87
2021/05/28 13:51:31;;;;;;;2.97;0.77;;;24.00;91.30;;;;;;6154660;23;20018;-88
2021/05/28 13:53:58;;;;;;;1.70;0.90;;;23.90;91.40;;;;;;6154563;23;20013;-88
2021/05/28 13:56:26;;;;;;;2.90;1.00;;;24.00;91.60;;;;;;6154096;23;20017;-88
2021/05/28 13:58:53;;;;;;;2.03;0.77;;;24.00;91.40;;;;;;6154712;23;20392;-87
2021/05/28 14:01:19;;;;;;;1.83;0.70;;;24.00;91.30;;;;;;6153751;23;20028;-88
2021/05/28 14:03:47;;;;;;;1.92;0.90;;;24.10;91.50;;;;;;6155947;23;20017;-88
2021/05/28 14:06:14;;;;;;;1.38;0.90;;;24.20;91.60;;;;;;6153952;23;20047;-88
2021/05/28 14:08:41;;;;;;;2.47;1.30;;;24.10;91.40;;;;;;6153996;23;20017;-88
2021/05/28 14:11:08;;;;;;;1.75;1.20;;;24.20;91.60;;;;;;6154117;23;20064;-88
2021/05/28 14:13:34;;;;;;;1.67;0.90;;;24.20;91.50;;;;;;6155747;23;20022;-88
2021/05/28 14:16:01;;;;;;;1.25;0.90;;;24.30;91.50;;;;;;6153913;23;20021;-89
2021/05/28 14:18:28;;;;;;;2.35;1.30;;;24.30;91.60;;;;;;6153441;23;20022;-88
2021/05/28 14:20:55;;;;;;;2.42;1.02;;;24.30;91.60;;;;;;6155571;23;20337;-89
2021/05/28 14:23:22;;;;;;;24.25;2.42;;;24.40;91.60;;;;;;6153427;23;20025;-87
2021/05/28 14:25:49;;;;;;;1.42;0.80;;;24.40;91.30;;;;;;6153603;23;20021;-88
2021/05/28 14:28:16;;;;;;;3.35;0.98;;;24.40;91.30;;;;;;6154004;23;20381;-88
2021/05/28 14:30:43;;;;;;;1.65;0.80;;;24.10;91.80;;;;;;6153901;23;20018;-88
2021/05/28 14:33:10;;;;;;;1.35;0.90;;;24.00;92.20;;;;;;6153986;23;20018;-87
2021/05/28 14:35:37;;;;;;;1.35;0.70;;;23.80;92.60;;;;;;6154000;23;20013;-86
2021/05/28 14:38:05;;;;;;;2.38;0.90;;;23.70;92.70;;;;;;6153757;23;20026;-87
2021/05/28 14:40:32;;;;;;;1.83;0.80;;;23.70;92.90;;;;;;6153464;23;20053;-86
2021/05/28 14:42:59;;;;;;;2.83;0.70;;;23.60;92.90;;;;;;6153785;23;20091;-87
2021/05/28 14:45:26;;;;;;;2.78;0.80;;;23.60;92.90;;;;;;6153725;23;20017;-88
2021/05/28 14:47:53;;;;;;;1.25;0.75;;;23.50;93.20;;;;;;6155388;23;20021;-87
2021/05/28 14:50:20;;;;;;;2.10;0.70;;;23.60;93.60;;;;;;6153721;23;20076;-87
2021/05/28 14:52:50;;;;;;;2.35;0.82;;;23.60;93.60;;;;;;6154317;23;20465;-88
2021/05/28 14:55:18;;;;;;;2.65;0.90;;;23.70;93.30;;;;;;6153305;23;20022;-86
2021/05/28 14:57:44;;;;;;;1.27;0.70;;;23.80;93.00;;;;;;6154295;23;20093;-87
2021/05/28 15:00:16;;;;;;;1.55;0.68;;;23.80;93.10;;;;;;6154990;23;20457;-86
2021/05/28 15:02:44;;;;;;;1.98;0.90;;;23.90;92.90;;;;;;6154220;23;20041;-86
2021/05/28 15:05:14;;;;;;;2.65;0.90;;;24.00;92.60;;;;;;6153198;23;20385;-87
2021/05/28 15:07:43;;;;;;;1.80;0.80;;;24.10;92.70;;;;;;6155513;23;20106;-86
2021/05/28 15:10:14;;;;;;;2.58;0.93;;;24.20;92.80;;;;;;6153650;23;20018;-88
2021/05/28 15:12:41;;;;;;;1.23;0.80;;;24.30;92.70;;;;;;6154157;23;20017;-86
2021/05/28 15:15:11;;;;;;;1.05;0.80;;;24.30;92.50;;;;;;6154744;23;20418;-86
2021/05/28 15:17:39;;;;;;;2.05;0.80;;;24.30;92.30;;;;;;6155275;23;20013;-85
2021/05/28 15:20:07;;;;;;;3.00;0.90;;;24.40;92.10;;;;;;6154591;23;20013;-88
2021/05/28 15:22:34;;;;;;;1.92;0.80;;;24.40;92.20;;;;;;6155511;23;20392;-87
2021/05/28 15:25:02;;;;;;;2.90;0.75;;;24.40;92.30;;;;;;6154206;23;20026;-88
2021/05/28 15:27:29;;;;;;;3.20;1.00;;;24.10;92.20;;;;;;6153270;23;20084;-86
2021/05/28 15:29:56;;;;;;;2.63;0.60;;;24.10;92.60;;;;;;6153402;23;20022;-87
2021/05/28 15:32:23;;;;;;;3.03;0.70;;;24.10;92.40;;;;;;6151921;23;20330;-86
2021/05/28 15:34:51;;;;;;;1.70;0.70;;;24.00;92.30;;;;;;6153740;23;20022;-86
2021/05/28 15:37:18;;;;;;;3.55;0.80;;;23.90;92.40;;;;;;6154718;23;20524;-86
2021/05/28 15:39:45;;;;;;;1.92;0.82;;;23.90;92.30;;;;;;6153372;23;20021;-86
2021/05/28 15:42:12;;;;;;;2.20;0.80;;;23.90;92.70;;;;;;6153351;23;20026;-86
2021/05/28 15:44:39;;;;;;;1.08;0.73;;;24.00;92.60;;;;;;6151244;23;20056;-87
2021/05/28 15:47:05;;;;;;;1.70;0.75;;;24.10;92.50;;;;;;6151723;23;20025;-85
2021/05/28 15:49:32;;;;;;;2.25;0.93;;;24.10;92.30;;;;;;6152425;23;20017;-86
2021/05/28 15:51:59;;;;;;;2.97;0.73;;;24.00;92.10;;;;;;6152320;23;20064;-86
2021/05/28 15:54:27;;;;;;;2.53;0.82;;;24.00;92.20;;;;;;6149611;23;20031;-86
2021/05/28 15:56:54;;;;;;;1.02;0.68;;;24.00;92.50;;;;;;6151158;23;20017;-86
2021/05/28 15:59:21;;;;;;;2.22;0.70;;;23.90;92.50;;;;;;6150729;23;20402;-84
2021/05/28 16:01:57;;;;;;;0.98;0.70;;;24.00;92.50;;;;;;6152443;23;20043;-85
2021/05/28 16:04:24;;;;;;;;;;;23.90;92.20;;;;;;6150590;23;20028;-86
2021/05/28 16:06:52;;;;;;;1.93;0.80;;;23.70;92.80;;;;;;6175326;23;19917;-86
2021/05/28 16:09:18;;;;;;;4.22;0.85;;;23.80;92.70;;;;;;6149768;23;20308;-86
2021/05/28 16:11:51;;;;;;;1.75;0.93;;;23.90;92.60;;;;;;6150470;23;20017;-87
2021/05/28 16:14:18;;;;;;;4.32;1.02;;;23.90;92.60;;;;;;6149675;23;20414;-87
2021/05/28 16:16:46;;;;;;;1.40;0.80;;;23.90;92.70;;;;;;6150247;23;20445;-86
2021/05/28 16:19:13;;;;;;;3.77;1.10;;;23.90;92.50;;;;;;6149249;23;20028;-87
2021/05/28 16:21:42;;;;;;;1.23;0.75;;;23.90;92.60;;;;;;6151944;23;20241;-88
2021/05/28 16:24:10;;;;;;;3.45;1.10;;;23.80;92.60;;;;;;6151264;23;20285;-87
2021/05/28 16:26:38;;;;;;;3.15;0.82;;;23.70;92.80;;;;;;6150366;23;20018;-86
2021/05/28 16:29:06;;;;;;;2.10;0.90;;;23.60;93.00;;;;;;6149611;23;20018;-86
2021/05/28 16:31:33;;;;;;;2.75;1.00;;;23.60;93.10;;;;;;6149844;23;20022;-88
2021/05/28 16:34:02;;;;;;;2.33;0.80;;;23.70;93.30;;;;;;6152010;23;20014;-88
2021/05/28 16:36:30;;;;;;;5.00;1.20;;;23.60;93.50;;;;;;6149396;23;21054;-89
2021/05/28 16:38:57;;;;;;;2.10;0.88;;;23.50;93.60;;;;;;6149779;23;20022;-89
2021/05/28 16:41:28;;;;;;;2.63;1.02;;;23.50;93.90;;;;;;6149519;23;20026;-88
2021/05/28 16:43:55;;;;;;;2.78;1.00;;;23.30;93.90;;;;;;6150947;23;20021;-88
2021/05/28 16:46:22;;;;;;;4.60;1.17;;;23.10;93.90;;;;;;6149904;23;20080;-89
2021/05/28 16:48:49;;;;;;;4.32;1.30;;;23.00;94.00;;;;;;6149886;23;20088;-89
2021/05/28 16:51:17;;;;;;;2.15;1.00;;;23.00;94.20;;;;;;6149410;23;20096;-88
2021/05/28 16:53:44;;;;;;;1.98;1.20;;;22.80;94.10;;;;;;6151751;23;20021;-88
2021/05/28 16:56:11;;;;;;;3.35;1.35;;;22.80;94.40;;;;;;6149442;23;20096;-89
2021/05/28 16:58:39;;;;;;;3.50;1.17;;;22.70;94.20;;;;;;6151171;23;20441;-89
2021/05/28 17:01:07;;;;;;;4.07;1.40;;;22.60;93.90;;;;;;6151043;23;20083;-89
2021/05/28 17:03:34;;;;;;;3.10;1.10;;;22.60;94.10;;;;;;6151459;23;20112;-89
2021/05/28 17:06:02;;;;;;;4.80;1.50;;;22.60;94.30;;;;;;6151691;23;20029;-89
2021/05/28 17:08:31;;;;;;;2.78;1.13;;;22.60;94.10;;;;;;6150893;23;20017;-89
2021/05/28 17:10:59;;;;;;;2.92;1.10;;;22.50;94.10;;;;;;6150034;23;20068;-89
2021/05/28 17:13:26;;;;;;;2.10;1.10;;;22.40;94.10;;;;;;6149177;23;20021;-88
2021/05/28 17:15:53;;;;;;;3.08;0.85;;;22.30;94.00;;;;;;6150191;23;20413;-89
2021/05/28 17:18:21;;;;;;;2.10;1.15;;;22.20;93.80;;;;;;6149105;23;20427;-90
2021/05/28 17:20:51;;;;;;;2.85;1.00;;;22.20;93.60;;;;;;6149924;23;20022;-90
2021/05/28 17:23:17;;;;;;;;;;;22.10;93.70;;;;;;6151233;23;20080;-89
2021/05/28 17:26:04;;;;;;;2.47;1.10;;;22.00;93.80;;;;;;6151048;23;19916;-90
2021/05/28 17:28:31;;;;;;;2.35;0.95;;;22.00;93.80;;;;;;6151362;23;20053;-87
2021/05/28 17:30:58;;;;;;;1.58;1.10;;;22.00;93.80;;;;;;6149123;23;20323;-88
2021/05/28 17:33:25;;;;;;;7.25;1.20;;;22.00;94.00;;;;;;6148741;23;20389;-88
2021/05/28 17:35:52;;;;;;;4.45;1.27;;;22.10;94.10;;;;;;6148758;23;20041;-88
2021/05/28 17:38:19;;;;;;;2.78;1.30;;;22.10;94.10;;;;;;6148543;23;20017;-89
2021/05/28 17:40:46;;;;;;;4.32;1.35;;;22.30;94.20;;;;;;6149870;23;20068;-88
2021/05/28 17:43:13;;;;;;;2.83;1.50;;;22.40;93.70;;;;;;6149595;23;20025;-88
2021/05/28 17:45:40;;;;;;;2.75;1.63;;;22.40;93.80;;;;;;6148572;23;20018;-89
2021/05/28 17:48:08;;;;;;;3.30;1.50;;;22.40;93.70;;;;;;6148866;23;20099;-88
2021/05/28 17:50:36;;;;;;;3.45;1.13;;;22.60;93.80;;;;;;6149414;23;20068;-89
2021/05/28 17:53:10;;;;;;;3.25;1.80;;;23.00;93.80;;;;;;6150729;23;20028;-89
2021/05/28 17:55:38;;;;;;;2.97;1.45;;;23.40;93.50;;;;;;6151061;23;20022;-90
2021/05/28 17:58:05;;;;;;;3.40;1.38;;;23.70;93.00;;;;;;6148683;23;20048;-89
2021/05/28 18:00:34;;;;;;;4.80;1.60;;;24.00;92.80;;;;;;6148998;23;20014;-87
2021/05/28 18:03:03;;;;;;;2.20;1.50;;;24.40;92.20;;;;;;6149762;23;20025;-88
2021/05/28 18:05:30;;;;;;;2.58;2.25;;;24.60;92.10;;;;;;6149234;23;20026;-88
2021/05/28 18:07:57;;;;;;;4.40;1.70;;;25.00;91.90;;;;;;6149562;23;20476;-88
2021/05/28 18:10:24;;;;;;;3.95;1.92;;;25.50;91.80;;;;;;6148636;23;20051;-88
2021/05/28 18:12:54;;;;;;;2.67;1.38;;;25.80;91.40;;;;;;6150956;23;20346;-87
2021/05/28 18:15:22;;;;;;;3.40;1.40;;;26.30;91.30;;;;;;6150005;23;20401;-89
2021/05/28 18:17:49;;;;;;;;;;;26.70;91.00;;;;;;6151743;23;20022;-89
2021/05/28 18:20:20;;;;;;;4.30;1.50;;;27.10;90.10;;;;;;6152834;23;19920;-88
2021/05/28 18:22:47;;;;;;;3.30;1.60;;;26.80;89.90;;;;;;6151658;23;20092;-89
2021/05/28 18:25:16;;;;;;;4.47;1.55;;;26.50;90.30;;;;;;6153021;23;20477;-89
2021/05/28 18:27:43;;;;;;;3.23;1.40;;;26.40;90.30;;;;;;6152021;23;20022;-88
2021/05/28 18:30:14;;;;;;;3.58;1.50;;;26.40;90.30;;;;;;6151285;23;20079;-92
2021/05/28 18:32:41;;;;;;;3.00;1.52;;;26.30;90.30;;;;;;6152263;23;20025;-92
2021/05/28 18:35:13;;;;;;;3.50;1.50;;;25.80;90.40;;;;;;6135997;23;20013;-91
2021/05/28 18:37:40;;;;;;;3.70;1.35;;;25.50;90.60;;;;;;6150287;23;20021;-90
2021/05/28 18:40:11;;;;;;;4.15;1.50;;;25.00;90.90;;;;;;6149900;23;20035;-90
2021/05/28 18:42:39;;;;;;;3.83;1.45;;;24.60;91.20;;;;;;6150228;23;20580;-90
2021/05/28 18:45:09;;;;;;;4.40;1.65;;;24.20;91.50;;;;;;6148924;23;20073;-90
2021/05/28 18:47:37;;;;;;;3.97;1.50;;;23.90;91.70;;;;;;6150562;23;20013;-90
2021/05/28 18:50:07;;;;;;;2.33;1.40;;;23.70;92.00;;;;;;6150348;23;20117;-85
2021/05/28 18:52:34;;;;;;;5.22;1.50;;;23.70;92.20;;;;;;6150239;23;20074;-87
2021/05/28 18:55:02;;;;;;;5.82;1.33;;;23.60;92.20;;;;;;6151693;23;20361;-91
2021/05/28 18:57:30;;;;;;;3.10;1.42;;;23.70;92.20;;;;;;6151210;23;20468;-89
2021/05/28 18:59:57;;;;;;;4.05;1.48;;;23.70;92.10;;;;;;6150372;23;20014;-91
2021/05/28 19:02:24;;;;;;;3.00;1.45;;;23.70;92.10;;;;;;6151136;23;20029;-90
2021/05/28 19:04:51;;;;;;;4.55;1.42;;;23.50;92.10;;;;;;6150571;23;20021;-89
2021/05/28 19:07:18;;;;;;;5.18;1.73;;;23.30;92.30;;;;;;6150284;23;20029;-88
2021/05/28 19:09:45;;;;;;;4.55;1.50;;;23.00;92.50;;;;;;6150944;23;20457;-89
2021/05/28 19:12:12;;;;;;;5.22;1.70;;;22.60;92.80;;;;;;6150179;23;20064;-90
2021/05/28 19:14:40;;;;;;;3.22;1.50;;;22.10;93.20;;;;;;6150720;23;20092;-89
2021/05/28 19:17:11;;;;;;;2.97;1.75;;;21.80;93.70;;;;;;6151208;23;20049;-88
2021/05/28 19:19:38;;;;;;;2.33;1.38;;;21.50;94.10;;;;;;6150678;23;20118;-88
2021/05/28 19:22:06;;;;;;;2.25;1.48;;;21.20;94.30;;;;;;6150683;23;20092;-89
2021/05/28 19:24:33;;;;;;;5.03;1.67;;;21.00;94.70;;;;;;6150520;23;20025;-89
2021/05/28 19:27:00;;;;;;;3.00;1.70;;;20.80;95.10;;;;;;6150736;23;20044;-88
2021/05/28 19:29:27;;;;;;;3.90;1.58;;;20.50;95.60;;;;;;6150060;23;20017;-90
2021/05/28 19:31:54;;;;;;;4.28;1.67;;;20.30;96.10;;;;;;6150127;23;20041;-87
2021/05/28 19:34:21;;;;;;;3.20;1.58;;;20.00;96.60;;;;;;6151056;23;20021;-92
2021/05/28 19:36:48;;;;;;;6.30;2.15;;;19.80;97.00;;;;;;6151570;23;20076;-89
2021/05/28 19:39:15;;;;;;;4.32;2.00;;;19.50;97.50;;;;;;6149662;23;20022;-88
2021/05/28 19:41:42;;;;;;;3.10;2.13;;;19.30;97.90;;;;;;6149672;23;20025;-88
2021/05/28 19:44:09;;;;;;;3.67;2.10;;;19.20;98.30;;;;;;6144325;23;20841;-89
2021/05/28 19:46:36;;;;;;;3.47;1.88;;;19.00;98.70;;;;;;6149140;23;20080;-90
2021/05/28 19:49:04;;;;;;;5.03;2.20;;;18.90;99.10;;;;;;6148772;23;20013;-88
2021/05/28 19:51:33;;;;;;;4.20;1.80;;;18.70;99.50;;;;;;6149078;23;20080;-89
2021/05/28 19:56:30;;;;;;;4.53;2.38;;;18.40;99.90;;;;;;6151034;23;20234;-90
2021/05/28 19:59:02;;;;;;;4.47;2.25;;;18.30;99.90;;;;;;6148908;23;20021;-89
2021/05/28 20:01:31;;;;;;;5.28;2.35;;;18.20;99.90;;;;;;6147647;23;20072;-88
2021/05/28 20:04:02;;;;;;;6.63;2.33;;;18.20;99.90;;;;;;6150914;23;20032;-89
2021/05/28 20:06:29;;;;;;;6.75;2.33;;;18.10;99.90;;;;;;6149603;23;20472;-90
2021/05/28 20:08:56;;;;;;;7.50;2.60;;;18.00;99.90;;;;;;6150188;23;20381;-89
2021/05/28 20:14:28;;;;;;;4.13;2.00;;;17.80;99.90;;;;;;6088371;23;20057;-89
2021/05/28 20:16:56;;;;;;;4.65;2.08;;;17.70;99.90;;;;;;6089096;23;20065;-89
2021/05/28 20:19:25;;;;;;;4.20;2.45;;;17.60;99.90;;;;;;6089132;23;20023;-90
2021/05/28 20:21:53;;;;;;;4.70;2.50;;;17.50;99.90;;;;;;6090431;23;20023;-91
2021/05/28 20:24:21;;;;;;;5.78;2.40;;;17.50;99.90;;;;;;6088899;23;20034;-91
2021/05/28 20:26:48;;;;;;;3.58;2.50;;;17.40;99.90;;;;;;6090746;23;20462;-89
2021/05/28 20:29:17;;;;;;;5.10;2.80;;;17.40;99.90;;;;;;6090450;23;20044;-92
2021/05/28 20:31:44;;;;;;;5.15;2.53;;;17.30;99.90;;;;;;6089949;23;20026;-90
2021/05/28 20:34:12;;;;;;;3.67;2.40;;;17.30;99.90;;;;;;6089317;23;20442;-91
2021/05/28 20:36:39;;;;;;;4.80;2.40;;;17.30;99.90;;;;;;6091237;23;20050;-94
2021/05/28 20:39:08;;;;;;;4.18;2.67;;;17.20;99.90;;;;;;6089505;23;20019;-91